Time;durP1;ratioP1;P1;durP2;ratioP2;P2;SDS_P1;SDS_P2;PMS_P1;PMS_P2;Temp;Humidity;BMP_temperature;BMP_pressure;BME280_temperature;BME280_humidity;BME280_pressure;Samples;Min_cycle;Max_cycle;Signal;HPM_P1;HPM_P2
2023/04/12 00:01:01;;;;;;;8.97;8.77;;;5.70;99.90;;;;;;5049054;28;20291;-86
2023/04/12 00:03:33;;;;;;;8.50;8.30;;;5.60;99.90;;;;;;5036418;28;20334;-85
2023/04/12 00:06:02;;;;;;;8.50;8.30;;;5.60;99.90;;;;;;5020807;28;20236;-85
2023/04/12 00:08:34;;;;;;;8.50;8.30;;;5.60;99.90;;;;;;5034367;28;20229;-85
2023/04/12 00:13:56;;;;;;;8.60;8.40;;;5.50;99.90;;;;;;5050418;28;20243;-85
2023/04/12 00:16:24;;;;;;;8.80;8.60;;;5.40;99.90;;;;;;5024670;28;20239;-85
2023/04/12 00:18:56;;;;;;;8.77;8.57;;;5.40;99.90;;;;;;5039934;28;20247;-85
2023/04/12 00:21:23;;;;;;;8.90;8.70;;;5.40;99.90;;;;;;5028563;28;20232;-85
2023/04/12 00:23:54;;;;;;;9.03;8.83;;;5.30;99.90;;;;;;5020140;28;20244;-85
2023/04/12 00:26:23;;;;;;;9.00;8.80;;;5.30;99.90;;;;;;5027394;28;20238;-83
2023/04/12 00:28:54;;;;;;;9.30;9.00;;;5.30;99.90;;;;;;5059878;28;20314;-85
2023/04/12 00:31:22;;;;;;;8.67;8.47;;;5.30;99.90;;;;;;5051597;28;20235;-85
2023/04/12 00:33:51;;;;;;;9.07;8.87;;;5.30;99.90;;;;;;5062473;28;20235;-85
2023/04/12 00:36:20;;;;;;;9.27;8.97;;;5.40;99.90;;;;;;5061433;28;20254;-85
2023/04/12 00:38:50;;;;;;;9.07;8.83;;;5.40;99.90;;;;;;5061116;28;20313;-85
2023/04/12 00:41:19;;;;;;;8.90;8.70;;;5.40;99.90;;;;;;5057199;28;20304;-85
2023/04/12 00:43:50;;;;;;;8.90;8.70;;;5.40;99.90;;;;;;5060636;28;20231;-85
2023/04/12 00:46:20;;;;;;;8.87;8.67;;;5.40;99.90;;;;;;5055128;28;20215;-85
2023/04/12 00:48:48;;;;;;;8.80;8.60;;;5.50;99.90;;;;;;5067665;28;20273;-85
2023/04/12 00:51:16;;;;;;;8.97;8.77;;;5.50;99.90;;;;;;5061880;28;20236;-84
2023/04/12 00:53:46;;;;;;;9.27;8.97;;;5.50;99.90;;;;;;5060050;28;20370;-85
2023/04/12 00:56:16;;;;;;;9.00;8.80;;;5.50;99.90;;;;;;5051068;28;20325;-85
2023/04/12 00:58:45;;;;;;;9.30;9.00;;;5.60;99.90;;;;;;5058973;28;20284;-85
2023/04/12 01:01:18;;;;;;;8.77;8.57;;;5.50;99.90;;;;;;5050375;28;20230;-85
2023/04/12 01:03:47;;;;;;;9.00;8.80;;;5.50;99.90;;;;;;5043901;28;20227;-85
2023/04/12 01:06:28;;;;;;;9.30;9.00;;;5.50;99.90;;;;;;5039071;28;20244;-85
2023/04/12 01:09:03;;;;;;;8.70;8.50;;;5.50;99.90;;;;;;5038513;28;20235;-85
2023/04/12 01:11:38;;;;;;;8.60;8.40;;;5.50;99.90;;;;;;5047652;28;20222;-85
2023/04/12 01:14:17;;;;;;;8.60;8.40;;;5.50;99.90;;;;;;5039252;28;20346;-85
2023/04/12 01:16:56;;;;;;;8.43;8.23;;;5.50;99.90;;;;;;5040458;28;20243;-85
2023/04/12 01:23:07;;;;;;;8.60;8.40;;;5.50;99.90;;;;;;5039510;28;20223;-85
2023/04/12 01:26:01;;;;;;;8.80;8.60;;;5.60;99.90;;;;;;5026576;28;20236;-85
2023/04/12 01:28:39;;;;;;;9.20;8.90;;;5.60;99.90;;;;;;5045979;28;20230;-85
2023/04/12 01:31:08;;;;;;;9.17;8.90;;;5.50;99.90;;;;;;5041367;28;20322;-85
2023/04/12 01:33:38;;;;;;;8.80;8.60;;;5.50;99.90;;;;;;5051002;28;20262;-85
2023/04/12 01:36:16;;;;;;;9.07;8.83;;;5.60;99.90;;;;;;5049142;28;20241;-85
2023/04/12 01:38:45;;;;;;;9.40;9.10;;;5.60;99.90;;;;;;5051415;28;20269;-85
2023/04/12 01:41:15;;;;;;;9.00;8.80;;;5.60;99.90;;;;;;5061003;28;20222;-85
2023/04/12 01:46:31;;;;;;;8.97;8.77;;;5.60;99.90;;;;;;5020095;28;20259;-85
2023/04/12 01:49:01;;;;;;;9.10;8.90;;;5.60;99.90;;;;;;5045705;28;20230;-85
2023/04/12 01:51:41;;;;;;;9.30;9.00;;;5.60;99.90;;;;;;5053160;28;20317;-85
2023/04/12 01:54:16;;;;;;;9.30;9.00;;;5.60;99.90;;;;;;5038611;28;20283;-85
2023/04/12 01:56:48;;;;;;;9.50;9.20;;;5.60;99.90;;;;;;5043146;28;20238;-85
2023/04/12 01:59:26;;;;;;;9.27;8.97;;;5.60;99.90;;;;;;5059321;28;20322;-85
2023/04/12 02:01:55;;;;;;;9.50;9.20;;;5.60;99.90;;;;;;5042388;28;20223;-85
2023/04/12 02:04:26;;;;;;;9.20;8.90;;;5.60;99.90;;;;;;5043365;28;20236;-85
2023/04/12 02:06:54;;;;;;;9.40;9.10;;;5.60;99.90;;;;;;5042665;28;20326;-85
2023/04/12 02:09:24;;;;;;;9.63;9.33;;;5.50;99.90;;;;;;5042959;28;20286;-85
2023/04/12 02:11:53;;;;;;;9.60;9.30;;;5.60;99.90;;;;;;5058596;28;20226;-85
2023/04/12 02:14:35;;;;;;;9.00;8.80;;;5.60;99.90;;;;;;5059200;28;20259;-84
2023/04/12 02:17:04;;;;;;;9.57;9.27;;;5.60;99.90;;;;;;5042888;28;20235;-85
2023/04/12 02:19:32;;;;;;;9.30;9.00;;;5.60;99.90;;;;;;5042292;28;20223;-85
2023/04/12 02:22:00;;;;;;;9.40;9.10;;;5.60;99.90;;;;;;5043468;28;20236;-85
2023/04/12 02:24:29;;;;;;;9.17;8.90;;;5.70;99.90;;;;;;5057025;28;20269;-85
2023/04/12 02:27:00;;;;;;;9.30;9.00;;;5.70;99.90;;;;;;5041363;28;20235;-85
2023/04/12 02:29:31;;;;;;;8.77;8.57;;;5.70;99.90;;;;;;5054912;28;20235;-85
2023/04/12 02:31:58;;;;;;;8.80;8.60;;;5.70;99.90;;;;;;5052835;28;20314;-85
2023/04/12 02:34:30;;;;;;;9.07;8.87;;;5.70;99.90;;;;;;5046739;28;20242;-85
2023/04/12 02:36:58;;;;;;;9.30;9.00;;;5.70;99.90;;;;;;5055626;28;20249;-85
2023/04/12 02:39:28;;;;;;;8.90;8.70;;;5.80;99.90;;;;;;5064757;28;20251;-85
2023/04/12 02:41:55;;;;;;;8.90;8.70;;;5.80;99.90;;;;;;5029772;28;20230;-85
2023/04/12 02:44:25;;;;;;;9.37;9.07;;;5.80;99.90;;;;;;5021074;28;20240;-85
2023/04/12 02:47:06;;;;;;;9.30;9.00;;;5.80;99.90;;;;;;5020674;28;20275;-85
2023/04/12 02:49:34;;;;;;;9.17;8.93;;;5.80;99.90;;;;;;5048652;28;20243;-85
2023/04/12 02:52:02;;;;;;;9.03;8.83;;;5.80;99.90;;;;;;5042694;28;20295;-85
2023/04/12 02:54:31;;;;;;;9.10;8.90;;;5.80;99.90;;;;;;5059112;28;20246;-85
2023/04/12 02:57:01;;;;;;;9.27;8.97;;;5.70;99.90;;;;;;5047584;28;20227;-85
2023/04/12 02:59:33;;;;;;;9.10;8.90;;;5.70;99.90;;;;;;5051038;28;20219;-85
2023/04/12 03:02:02;;;;;;;8.67;8.47;;;5.80;99.90;;;;;;5046562;28;20231;-85
2023/04/12 03:04:29;;;;;;;8.63;8.43;;;5.80;99.90;;;;;;5048632;28;20329;-87
2023/04/12 03:06:59;;;;;;;8.90;8.70;;;5.80;99.90;;;;;;5066543;28;20250;-86
2023/04/12 03:09:28;;;;;;;9.23;8.93;;;5.70;99.90;;;;;;5068816;28;20228;-84
2023/04/12 03:11:57;;;;;;;9.30;9.00;;;5.70;99.90;;;;;;5069894;28;20216;-84
2023/04/12 03:14:27;;;;;;;9.40;9.10;;;5.70;99.90;;;;;;5066954;28;20227;-83
2023/04/12 03:16:57;;;;;;;8.93;8.73;;;5.70;99.90;;;;;;5044580;28;20239;-84
2023/04/12 03:19:31;;;;;;;9.30;9.00;;;5.70;99.90;;;;;;5046986;28;20229;-84
2023/04/12 03:22:03;;;;;;;8.87;8.67;;;5.70;99.90;;;;;;5060577;28;20314;-85
2023/04/12 03:24:34;;;;;;;8.80;8.60;;;5.70;99.90;;;;;;5055698;28;20289;-85
2023/04/12 03:27:02;;;;;;;8.80;8.60;;;5.70;99.90;;;;;;5048817;28;20235;-85
2023/04/12 03:29:37;;;;;;;8.70;8.50;;;5.80;99.90;;;;;;5053995;28;20222;-84
2023/04/12 03:32:07;;;;;;;8.57;8.37;;;5.70;99.90;;;;;;5061112;28;20234;-86
2023/04/12 03:34:40;;;;;;;8.53;8.33;;;5.80;99.90;;;;;;5041821;28;20239;-86
2023/04/12 03:37:18;;;;;;;8.90;8.70;;;5.70;99.90;;;;;;5051238;28;20309;-86
2023/04/12 03:39:47;;;;;;;8.70;8.50;;;5.80;99.90;;;;;;5044274;28;20235;-86
2023/04/12 03:42:20;;;;;;;8.80;8.60;;;5.80;99.90;;;;;;5039526;28;20224;-86
2023/04/12 03:44:51;;;;;;;8.60;8.40;;;5.80;99.90;;;;;;5039925;28;20235;-86
2023/04/12 03:47:19;;;;;;;8.77;8.57;;;5.80;99.90;;;;;;5039348;28;20261;-86
2023/04/12 03:49:48;;;;;;;9.00;8.80;;;5.90;99.90;;;;;;5032061;28;20314;-86
2023/04/12 03:52:16;;;;;;;8.73;8.53;;;5.90;99.90;;;;;;5019477;28;20232;-86
2023/04/12 03:54:44;;;;;;;8.73;8.53;;;6.00;99.90;;;;;;5036313;28;20324;-86
2023/04/12 03:57:15;;;;;;;8.67;8.47;;;6.00;99.90;;;;;;5040467;28;20306;-87
2023/04/12 03:59:45;;;;;;;8.80;8.60;;;6.00;99.90;;;;;;5045815;28;20237;-86
2023/04/12 04:02:14;;;;;;;8.30;8.10;;;6.10;99.90;;;;;;5059397;28;20281;-86
2023/04/12 04:04:43;;;;;;;8.10;7.90;;;6.10;99.90;;;;;;5050488;28;20239;-86
2023/04/12 04:10:01;;;;;;;8.73;8.53;;;6.10;99.90;;;;;;5058332;28;21208;-86
2023/04/12 04:12:30;;;;;;;8.70;8.50;;;6.20;99.90;;;;;;5058337;28;20237;-86
2023/04/12 04:15:01;;;;;;;8.83;8.63;;;6.10;99.90;;;;;;5041029;28;20293;-86
2023/04/12 04:17:29;;;;;;;9.53;9.23;;;6.10;99.90;;;;;;5038806;28;20236;-86
2023/04/12 04:19:59;;;;;;;9.23;8.93;;;6.10;99.90;;;;;;5042764;28;20255;-86
2023/04/12 04:22:37;;;;;;;9.30;9.00;;;6.20;99.90;;;;;;5043133;28;20242;-86
2023/04/12 04:25:06;;;;;;;10.50;10.20;;;6.20;99.90;;;;;;5056398;28;20304;-85
2023/04/12 04:27:37;;;;;;;10.53;10.23;;;6.30;99.90;;;;;;5044408;28;20234;-86
2023/04/12 04:30:06;;;;;;;10.40;10.10;;;6.30;99.90;;;;;;5022441;28;20656;-86
2023/04/12 04:32:34;;;;;;;10.60;10.30;;;6.40;99.90;;;;;;5018787;28;20236;-86
2023/04/12 04:35:03;;;;;;;9.50;9.20;;;6.30;99.90;;;;;;5018853;28;20295;-86
2023/04/12 04:37:53;;;;;;;9.30;9.00;;;6.40;99.90;;;;;;5018871;28;20239;-86
2023/04/12 04:40:23;;;;;;;10.00;9.70;;;6.30;99.90;;;;;;5018638;28;20232;-86
2023/04/12 04:42:53;;;;;;;9.90;9.60;;;6.20;99.90;;;;;;5018794;28;20229;-87
2023/04/12 04:45:25;;;;;;;9.80;9.50;;;6.10;99.90;;;;;;5018813;28;20243;-86
2023/04/12 04:47:57;;;;;;;9.60;9.30;;;6.10;99.90;;;;;;5018875;28;20288;-86
2023/04/12 04:50:28;;;;;;;9.80;9.50;;;6.10;99.90;;;;;;5018303;28;20230;-86
2023/04/12 04:53:05;;;;;;;9.50;9.20;;;6.10;99.90;;;;;;5018966;28;20234;-87
2023/04/12 04:55:32;;;;;;;9.40;9.10;;;6.20;99.90;;;;;;5077819;22;20234;-80
2023/04/12 04:58:01;;;;;;;9.30;9.00;;;6.20;99.90;;;;;;5083671;28;20237;-80
2023/04/12 05:00:34;;;;;;;9.30;9.00;;;6.30;99.90;;;;;;5085674;28;20321;-80
2023/04/12 05:03:02;;;;;;;8.80;8.60;;;6.30;99.90;;;;;;5077556;28;20219;-80
2023/04/12 05:05:32;;;;;;;9.10;8.90;;;6.30;99.90;;;;;;5077825;28;20249;-81
2023/04/12 05:08:03;;;;;;;9.20;8.90;;;6.40;99.90;;;;;;5076104;28;20329;-82
2023/04/12 05:10:30;;;;;;;9.13;8.90;;;6.40;99.90;;;;;;5070543;28;20219;-81
2023/04/12 05:12:58;;;;;;;9.80;9.50;;;6.40;99.90;;;;;;5066291;28;20227;-81
2023/04/12 05:15:29;;;;;;;9.60;9.30;;;6.40;99.90;;;;;;5070706;28;20254;-81
2023/04/12 05:17:57;;;;;;;9.97;9.67;;;6.40;99.90;;;;;;5068940;28;20298;-82
2023/04/12 05:20:25;;;;;;;9.90;9.60;;;6.50;99.90;;;;;;5071742;28;20290;-81
2023/04/12 05:22:54;;;;;;;9.90;9.60;;;6.50;99.90;;;;;;5074887;28;20222;-80
2023/04/12 05:25:25;;;;;;;9.70;9.40;;;6.50;99.90;;;;;;5075269;28;20237;-81
2023/04/12 05:27:57;;;;;;;9.60;9.30;;;6.60;99.90;;;;;;5097310;28;20237;-80
2023/04/12 05:30:27;;;;;;;9.60;9.30;;;6.50;99.90;;;;;;5093279;28;20237;-80
2023/04/12 05:32:55;;;;;;;9.60;9.30;;;6.50;99.90;;;;;;5099560;28;20226;-80
2023/04/12 05:35:23;;;;;;;9.60;9.30;;;6.50;99.90;;;;;;5099358;28;20225;-80
2023/04/12 05:37:51;;;;;;;9.70;9.40;;;6.60;99.90;;;;;;5098893;28;20225;-80
2023/04/12 05:40:25;;;;;;;9.37;9.07;;;6.70;99.90;;;;;;5099265;28;20245;-80
2023/04/12 05:42:54;;;;;;;9.50;9.20;;;6.70;99.90;;;;;;5099274;28;20213;-80
2023/04/12 05:45:23;;;;;;;9.47;9.17;;;6.80;99.90;;;;;;5091516;28;20253;-80
2023/04/12 05:47:52;;;;;;;9.53;9.23;;;6.80;99.90;;;;;;5099108;28;20278;-78
2023/04/12 05:50:20;;;;;;;9.60;9.30;;;6.90;99.90;;;;;;5090688;28;20249;-79
2023/04/12 05:52:49;;;;;;;9.70;9.40;;;6.90;99.90;;;;;;5091734;28;20211;-79
2023/04/12 05:55:17;;;;;;;10.10;9.80;;;7.00;99.90;;;;;;5098030;28;20226;-80
2023/04/12 05:57:46;;;;;;;10.10;9.80;;;7.00;99.90;;;;;;5096826;28;20265;-80
2023/04/12 06:00:17;;;;;;;9.80;9.50;;;7.00;99.90;;;;;;5098986;28;20225;-78
2023/04/12 06:02:46;;;;;;;9.70;9.40;;;7.10;99.90;;;;;;5098658;28;20213;-78
2023/04/12 06:05:15;;;;;;;9.90;9.60;;;7.10;99.90;;;;;;5098757;28;20242;-78
2023/04/12 06:07:46;;;;;;;9.50;9.20;;;7.10;99.90;;;;;;5086328;28;20221;-80
2023/04/12 06:10:20;;;;;;;9.30;9.00;;;7.10;99.90;;;;;;5098719;28;20233;-79
2023/04/12 06:12:48;;;;;;;9.90;9.60;;;7.10;99.90;;;;;;5099100;28;20226;-80
2023/04/12 06:15:19;;;;;;;9.40;9.10;;;7.10;99.90;;;;;;5098476;28;20222;-80
2023/04/12 06:17:47;;;;;;;9.80;9.50;;;7.10;99.90;;;;;;5091022;28;20405;-79
2023/04/12 06:20:15;;;;;;;9.50;9.20;;;7.10;99.90;;;;;;5084928;28;20340;-79
2023/04/12 06:22:43;;;;;;;9.17;8.87;;;7.10;99.90;;;;;;5080036;28;20302;-78
2023/04/12 06:25:11;;;;;;;9.07;8.77;;;7.20;99.90;;;;;;5077229;28;20233;-79
2023/04/12 06:27:39;;;;;;;9.40;9.10;;;7.20;99.90;;;;;;5076074;28;20329;-80
2023/04/12 06:30:08;;;;;;;9.17;8.87;;;7.20;99.90;;;;;;5082395;28;20228;-77
2023/04/12 06:32:37;;;;;;;9.27;8.97;;;7.20;99.90;;;;;;5077436;28;20298;-79
2023/04/12 06:35:06;;;;;;;9.40;9.10;;;7.20;99.90;;;;;;5085183;28;20231;-79
2023/04/12 06:37:33;;;;;;;9.50;9.20;;;7.20;99.90;;;;;;5084604;28;20234;-79
2023/04/12 06:40:01;;;;;;;9.43;9.13;;;7.10;99.90;;;;;;5084740;28;20234;-79
2023/04/12 06:42:29;;;;;;;9.13;8.83;;;7.10;99.90;;;;;;5086020;28;20227;-79
2023/04/12 06:44:56;;;;;;;8.90;8.70;;;7.20;99.90;;;;;;5079891;28;20302;-80
2023/04/12 06:47:25;;;;;;;9.27;8.97;;;7.20;99.90;;;;;;5089995;28;20246;-80
2023/04/12 06:49:56;;;;;;;8.97;8.70;;;7.20;99.90;;;;;;5088012;28;20285;-80
2023/04/12 06:52:25;;;;;;;8.73;8.53;;;7.20;99.90;;;;;;5088064;28;20218;-80
2023/04/12 06:54:53;;;;;;;8.80;8.60;;;7.20;99.90;;;;;;5086903;28;20337;-81
2023/04/12 06:57:20;;;;;;;8.60;8.40;;;7.30;99.90;;;;;;5087332;28;20264;-80
2023/04/12 06:59:50;;;;;;;9.33;9.03;;;7.20;99.90;;;;;;5089959;28;20228;-80
2023/04/12 07:02:19;;;;;;;9.17;8.87;;;7.20;99.90;;;;;;5090897;28;20253;-81
2023/04/12 07:04:47;;;;;;;9.40;9.10;;;7.20;99.90;;;;;;5096263;28;20226;-80
2023/04/12 07:07:19;;;;;;;9.10;8.80;;;7.10;99.90;;;;;;5097869;28;20230;-80
2023/04/12 07:09:47;;;;;;;9.10;8.80;;;7.10;99.90;;;;;;5092905;28;20238;-80
2023/04/12 07:12:16;;;;;;;9.20;8.90;;;7.10;99.90;;;;;;5090686;28;20230;-79
2023/04/12 07:14:43;;;;;;;9.37;9.07;;;7.10;99.90;;;;;;5089302;28;20233;-79
2023/04/12 07:17:11;;;;;;;8.83;8.63;;;7.10;99.90;;;;;;5088707;28;20261;-79
2023/04/12 07:19:39;;;;;;;9.37;9.07;;;7.10;99.90;;;;;;5087419;28;20230;-80
2023/04/12 07:22:06;;;;;;;9.10;8.80;;;7.10;99.90;;;;;;5088158;28;20231;-82
2023/04/12 07:24:36;;;;;;;8.83;8.63;;;7.00;99.90;;;;;;5087354;28;20290;-80
2023/04/12 07:27:05;;;;;;;8.80;8.60;;;7.10;99.90;;;;;;5084157;28;20328;-81
2023/04/12 07:29:35;;;;;;;8.80;8.60;;;7.10;99.90;;;;;;5086096;28;20229;-82
2023/04/12 07:32:04;;;;;;;9.30;9.00;;;7.00;99.90;;;;;;5078771;28;20325;-84
2023/04/12 07:34:35;;;;;;;9.30;9.00;;;7.00;99.90;;;;;;5087259;28;20241;-82
2023/04/12 07:37:03;;;;;;;9.50;9.20;;;7.10;99.90;;;;;;5087606;28;20292;-83
2023/04/12 07:39:33;;;;;;;9.50;9.20;;;7.00;99.90;;;;;;5085787;28;20234;-81
2023/04/12 07:42:04;;;;;;;9.40;9.10;;;7.10;99.90;;;;;;5083443;28;20238;-80
2023/04/12 07:44:32;;;;;;;9.07;8.77;;;7.10;99.90;;;;;;5079271;28;20277;-79
2023/04/12 07:47:00;;;;;;;8.83;8.63;;;7.10;99.90;;;;;;5072244;28;20269;-78
2023/04/12 07:49:29;;;;;;;8.80;8.60;;;7.30;99.90;;;;;;5082875;28;20237;-82
2023/04/12 07:51:57;;;;;;;9.10;8.80;;;7.40;99.90;;;;;;5088091;28;20237;-82
2023/04/12 07:54:29;;;;;;;8.93;8.73;;;7.40;99.90;;;;;;5077292;28;20266;-82
2023/04/12 07:57:03;;;;;;;9.10;8.80;;;7.40;99.90;;;;;;5066753;28;20242;-81
2023/04/12 07:59:31;;;;;;;9.27;8.97;;;7.40;99.90;;;;;;5065981;28;20237;-81
2023/04/12 08:01:59;;;;;;;8.90;8.70;;;7.40;99.90;;;;;;5066502;28;20219;-81
2023/04/12 08:04:29;;;;;;;8.80;8.60;;;7.40;99.90;;;;;;5066201;28;20242;-81
2023/04/12 08:06:57;;;;;;;8.20;8.00;;;7.40;99.90;;;;;;5066893;28;20227;-80
2023/04/12 08:09:26;;;;;;;8.47;8.27;;;7.40;99.90;;;;;;5066202;28;20794;-82
2023/04/12 08:11:57;;;;;;;8.60;8.40;;;7.40;99.90;;;;;;5065017;28;20369;-81
2023/04/12 08:14:28;;;;;;;9.10;8.80;;;7.50;99.90;;;;;;5064658;28;20238;-83
2023/04/12 08:16:56;;;;;;;9.17;8.87;;;7.50;99.90;;;;;;5065391;28;20247;-80
2023/04/12 08:19:26;;;;;;;9.10;8.80;;;7.50;99.90;;;;;;5064383;28;20241;-82
2023/04/12 08:21:56;;;;;;;8.80;8.60;;;7.60;99.90;;;;;;5064790;28;20287;-82
2023/04/12 08:24:24;;;;;;;8.87;8.67;;;7.60;99.90;;;;;;5066833;28;20234;-82
2023/04/12 08:26:54;;;;;;;8.73;8.53;;;7.70;99.90;;;;;;5067945;28;20233;-80
2023/04/12 08:29:23;;;;;;;8.80;8.60;;;7.70;99.90;;;;;;5063950;28;20253;-82
2023/04/12 08:31:55;;;;;;;8.63;8.43;;;7.70;99.90;;;;;;5063205;28;20296;-83
2023/04/12 08:34:23;;;;;;;8.87;8.67;;;7.70;99.90;;;;;;5062603;28;20326;-82
2023/04/12 08:36:52;;;;;;;8.60;8.40;;;7.80;99.90;;;;;;5063175;28;20226;-83
2023/04/12 08:39:22;;;;;;;8.40;8.20;;;7.90;99.90;;;;;;5062514;28;20237;-83
2023/04/12 08:41:50;;;;;;;8.50;8.30;;;8.00;99.90;;;;;;5063593;28;20227;-81
2023/04/12 08:44:20;;;;;;;8.60;8.40;;;8.00;99.90;;;;;;5064225;28;20242;-81
2023/04/12 08:46:49;;;;;;;8.50;8.30;;;8.00;99.90;;;;;;5064344;28;20246;-82
2023/04/12 08:49:21;;;;;;;8.60;8.40;;;8.00;99.90;;;;;;5067402;28;20333;-82
2023/04/12 08:51:49;;;;;;;8.50;8.30;;;8.00;99.90;;;;;;5068200;28;20242;-81
2023/04/12 08:54:18;;;;;;;8.67;8.47;;;8.10;99.90;;;;;;5067278;28;20314;-81
2023/04/12 08:56:47;;;;;;;9.10;8.80;;;8.10;99.90;;;;;;5064852;28;20249;-82
2023/04/12 08:59:16;;;;;;;8.70;8.50;;;8.20;99.90;;;;;;5063327;28;20239;-82
2023/04/12 09:01:47;;;;;;;9.23;8.93;;;8.10;99.90;;;;;;5062623;28;20227;-81
2023/04/12 09:04:15;;;;;;;9.30;9.00;;;8.10;99.90;;;;;;5062384;28;20234;-81
2023/04/12 09:06:44;;;;;;;8.80;8.60;;;8.10;99.90;;;;;;5063834;28;20306;-80
2023/04/12 09:09:12;;;;;;;9.30;9.00;;;8.20;99.90;;;;;;5064891;28;20238;-81
2023/04/12 09:11:40;;;;;;;9.30;9.00;;;8.10;99.90;;;;;;5064831;28;20238;-81
2023/04/12 09:14:22;;;;;;;9.00;8.73;;;8.10;99.90;;;;;;5065818;28;20241;-80
2023/04/12 09:16:51;;;;;;;8.97;8.70;;;8.10;99.90;;;;;;5067641;28;20237;-85
2023/04/12 09:19:32;;;;;;;8.70;8.50;;;8.10;99.90;;;;;;5066668;28;20325;-81
2023/04/12 09:22:02;;;;;;;8.73;8.53;;;8.10;99.90;;;;;;5069134;28;20227;-79
2023/04/12 09:24:30;;;;;;;9.03;8.73;;;8.10;99.90;;;;;;5074988;28;20238;-80
2023/04/12 09:27:04;;;;;;;9.00;8.70;;;8.10;99.90;;;;;;5069744;28;20226;-80
2023/04/12 09:29:37;;;;;;;8.70;8.50;;;8.10;99.90;;;;;;5065261;28;20285;-79
2023/04/12 09:32:07;;;;;;;8.80;8.60;;;8.00;99.90;;;;;;5064987;28;20214;-80
2023/04/12 09:34:36;;;;;;;8.43;8.23;;;8.00;99.90;;;;;;5064693;28;20257;-80
2023/04/12 09:37:17;;;;;;;8.57;8.37;;;8.00;99.90;;;;;;5086069;28;20234;-80
2023/04/12 09:39:44;;;;;;;8.87;8.60;;;8.00;99.90;;;;;;5085631;28;20238;-81
2023/04/12 09:42:14;;;;;;;8.80;8.57;;;8.00;99.90;;;;;;5083370;28;20265;-81
2023/04/12 09:44:42;;;;;;;8.50;8.30;;;8.00;99.90;;;;;;5082913;28;20234;-81
2023/04/12 09:47:11;;;;;;;8.90;8.60;;;8.10;99.90;;;;;;5083591;28;20328;-81
2023/04/12 09:49:41;;;;;;;8.50;8.30;;;8.10;99.90;;;;;;5083925;28;20325;-81
2023/04/12 09:52:11;;;;;;;8.60;8.40;;;8.10;99.90;;;;;;5083248;28;20233;-82
2023/04/12 09:54:46;;;;;;;8.50;8.30;;;8.10;99.90;;;;;;5083485;28;20238;-81
2023/04/12 09:57:19;;;;;;;8.70;8.50;;;8.10;99.90;;;;;;5083486;28;20321;-81
2023/04/12 09:59:51;;;;;;;8.70;8.50;;;8.10;99.90;;;;;;5083748;28;20223;-81
2023/04/12 10:02:21;;;;;;;8.90;8.70;;;8.10;99.90;;;;;;5083683;28;20222;-81
2023/04/12 10:04:49;;;;;;;8.60;8.40;;;8.20;99.90;;;;;;5085826;28;20234;-81
2023/04/12 10:07:17;;;;;;;8.70;8.50;;;8.20;99.90;;;;;;5085881;28;20284;-81
2023/04/12 10:09:48;;;;;;;8.97;8.67;;;8.10;99.90;;;;;;5086059;28;20237;-81
2023/04/12 10:12:16;;;;;;;9.17;8.87;;;8.10;99.90;;;;;;5085975;28;20321;-80
2023/04/12 10:14:45;;;;;;;9.20;8.90;;;8.10;99.90;;;;;;5085161;28;20229;-81
2023/04/12 10:17:14;;;;;;;8.67;8.47;;;8.20;99.90;;;;;;5086609;28;20244;-80
2023/04/12 10:19:44;;;;;;;9.10;8.80;;;8.20;99.90;;;;;;5089179;28;20242;-80
2023/04/12 10:22:14;;;;;;;8.73;8.53;;;8.30;99.90;;;;;;5090922;28;20244;-79
2023/04/12 10:24:43;;;;;;;9.00;8.70;;;8.30;99.90;;;;;;5091078;28;20235;-83
2023/04/12 10:27:31;;;;;;;9.00;8.70;;;8.50;99.90;;;;;;5092643;28;20222;-81
2023/04/12 10:30:23;;;;;;;8.80;8.60;;;8.50;99.90;;;;;;5087906;28;20244;-82
2023/04/12 10:33:18;;;;;;;8.83;8.63;;;8.50;99.90;;;;;;5082151;28;20227;-81
2023/04/12 10:35:59;;;;;;;8.90;8.70;;;8.50;99.90;;;;;;5075711;28;20238;-81
2023/04/12 10:38:31;;;;;;;8.67;8.47;;;8.50;99.90;;;;;;5075560;28;20237;-80
2023/04/12 10:41:19;;;;;;;8.63;8.43;;;8.50;99.90;;;;;;5090575;28;20269;-81
2023/04/12 10:43:49;;;;;;;8.50;8.30;;;8.50;99.90;;;;;;5091102;28;20261;-81
2023/04/12 10:46:52;;;;;;;8.93;8.63;;;8.60;99.90;;;;;;5089465;28;20294;-81
2023/04/12 10:49:20;;;;;;;9.10;8.80;;;8.70;99.90;;;;;;5048089;28;20250;-81
2023/04/12 10:52:14;;;;;;;9.13;8.83;;;8.80;99.90;;;;;;5046537;28;20250;-81
2023/04/12 10:54:44;;;;;;;9.17;8.87;;;9.00;99.90;;;;;;5072320;28;20238;-81
2023/04/12 10:57:53;;;;;;;9.10;8.80;;;9.10;99.90;;;;;;5089611;28;20265;-81
2023/04/12 11:00:22;;;;;;;8.83;8.53;;;9.20;99.90;;;;;;5012843;28;20320;-80
2023/04/12 11:03:10;;;;;;;9.50;9.20;;;9.20;99.90;;;;;;5023726;28;20290;-82
2023/04/12 11:06:01;;;;;;;9.50;9.20;;;9.20;99.90;;;;;;5067644;28;20226;-81
2023/04/12 11:08:32;;;;;;;9.67;9.37;;;9.20;99.90;;;;;;5086898;28;20272;-81
2023/04/12 11:11:03;;;;;;;9.80;9.50;;;9.20;99.90;;;;;;5087525;28;20315;-81
2023/04/12 11:13:39;;;;;;;9.57;9.27;;;9.20;99.90;;;;;;5088162;28;20305;-82
2023/04/12 11:16:17;;;;;;;9.30;9.00;;;9.20;99.90;;;;;;5085390;28;20383;-80
2023/04/12 11:18:47;;;;;;;9.60;9.30;;;9.20;99.90;;;;;;5081222;28;20226;-81
2023/04/12 11:21:16;;;;;;;9.50;9.20;;;9.30;99.90;;;;;;5085674;28;20226;-82
2023/04/12 11:23:59;;;;;;;9.60;9.30;;;9.20;99.90;;;;;;5085563;28;20223;-82
2023/04/12 11:26:32;;;;;;;9.10;8.80;;;9.20;99.90;;;;;;5074168;28;20242;-82
2023/04/12 11:29:11;;;;;;;8.87;8.67;;;9.20;99.90;;;;;;5080883;28;20241;-82
2023/04/12 11:31:40;;;;;;;9.00;8.70;;;9.20;99.90;;;;;;5077585;28;20226;-82
2023/04/12 11:34:12;;;;;;;8.50;8.30;;;9.20;99.90;;;;;;5075061;28;20257;-81
2023/04/12 11:36:40;;;;;;;8.90;8.60;;;9.30;99.90;;;;;;5079306;28;20261;-82
2023/04/12 11:39:08;;;;;;;8.77;8.57;;;9.30;99.90;;;;;;5074756;28;20313;-82
2023/04/12 11:41:38;;;;;;;8.80;8.60;;;9.30;99.90;;;;;;5075226;28;20322;-81
2023/04/12 11:44:07;;;;;;;8.30;8.10;;;9.30;99.90;;;;;;5078774;28;20311;-81
2023/04/12 11:46:37;;;;;;;8.50;8.30;;;9.30;99.90;;;;;;5096621;28;20249;-81
2023/04/12 11:49:37;;;;;;;8.63;8.43;;;9.30;99.90;;;;;;5095603;28;20260;-81
2023/04/12 11:52:05;;;;;;;8.57;8.37;;;9.30;99.90;;;;;;5086606;28;20298;-82
2023/04/12 11:54:34;;;;;;;8.90;8.60;;;9.30;99.90;;;;;;5086416;28;20234;-83
2023/04/12 11:57:02;;;;;;;8.90;8.60;;;9.30;99.90;;;;;;5088417;28;20713;-80
2023/04/12 11:59:33;;;;;;;9.00;8.70;;;9.40;99.90;;;;;;5088223;28;20230;-81
2023/04/12 12:02:01;;;;;;;9.30;9.00;;;9.40;99.90;;;;;;5086205;28;20234;-80
2023/04/12 12:04:31;;;;;;;9.17;8.87;;;9.40;99.90;;;;;;5087049;28;20233;-82
2023/04/12 12:07:01;;;;;;;8.80;8.60;;;9.50;99.90;;;;;;5087570;28;20230;-80
2023/04/12 12:09:30;;;;;;;9.10;8.80;;;9.40;99.90;;;;;;5081760;28;20238;-84
2023/04/12 12:12:00;;;;;;;8.70;8.50;;;9.40;99.90;;;;;;5087499;28;20236;-81
2023/04/12 12:14:29;;;;;;;8.67;8.47;;;9.50;99.90;;;;;;5080452;28;20265;-81
2023/04/12 12:16:58;;;;;;;8.57;8.37;;;9.50;99.90;;;;;;5071827;28;20235;-81
2023/04/12 12:19:29;;;;;;;8.50;8.30;;;9.60;99.90;;;;;;5079979;28;20240;-80
2023/04/12 12:22:16;;;;;;;8.57;8.37;;;9.60;99.90;;;;;;5079945;28;20238;-81
2023/04/12 12:24:54;;;;;;;8.60;8.40;;;9.60;99.90;;;;;;5086245;28;20292;-81
2023/04/12 12:27:24;;;;;;;8.30;8.10;;;9.60;99.90;;;;;;5089020;28;20236;-81
2023/04/12 12:29:54;;;;;;;8.57;8.37;;;9.70;99.90;;;;;;5091248;28;20226;-80
2023/04/12 12:32:23;;;;;;;8.27;8.07;;;9.70;99.90;;;;;;5091604;28;20291;-81
2023/04/12 12:34:56;;;;;;;8.73;8.53;;;9.80;99.90;;;;;;5086616;28;20232;-81
2023/04/12 12:37:27;;;;;;;8.77;8.57;;;9.80;99.90;;;;;;5081686;28;20282;-80
2023/04/12 12:40:12;;;;;;;8.87;8.67;;;9.90;99.90;;;;;;5070425;28;20253;-81
2023/04/12 12:42:47;;;;;;;9.10;8.80;;;10.10;99.90;;;;;;5069456;28;20286;-81
2023/04/12 12:45:15;;;;;;;9.03;8.73;;;10.10;99.90;;;;;;5067637;28;20261;-82
2023/04/12 12:47:51;;;;;;;8.87;8.67;;;10.20;99.90;;;;;;5074708;28;20241;-82
2023/04/12 12:50:22;;;;;;;8.67;8.47;;;10.20;99.90;;;;;;5070066;28;20265;-80
2023/04/12 12:52:54;;;;;;;8.60;8.40;;;10.30;99.90;;;;;;5069748;28;20242;-82
2023/04/12 12:55:23;;;;;;;8.70;8.50;;;10.40;99.90;;;;;;5069326;28;20253;-81
2023/04/12 12:57:56;;;;;;;8.80;8.60;;;10.40;99.90;;;;;;5070689;28;20253;-80
2023/04/12 13:00:26;;;;;;;8.70;8.50;;;10.40;99.90;;;;;;5068806;28;20298;-81
2023/04/12 13:02:54;;;;;;;9.00;8.70;;;10.40;99.90;;;;;;5069480;28;20270;-80
2023/04/12 13:05:23;;;;;;;8.60;8.40;;;10.40;99.90;;;;;;5067680;28;20245;-80
2023/04/12 13:07:53;;;;;;;8.70;8.50;;;10.40;99.90;;;;;;5079132;28;20230;-82
2023/04/12 13:10:22;;;;;;;9.00;8.70;;;10.40;99.90;;;;;;5084707;28;20237;-82
2023/04/12 13:12:50;;;;;;;8.67;8.47;;;10.50;99.90;;;;;;5085770;28;20222;-81
2023/04/12 13:15:18;;;;;;;8.80;8.60;;;10.50;99.90;;;;;;5086423;28;20245;-80
2023/04/12 13:17:46;;;;;;;8.70;8.50;;;10.60;99.90;;;;;;5084973;28;20272;-80
2023/04/12 13:20:15;;;;;;;8.50;8.30;;;10.60;99.90;;;;;;5083816;28;20229;-80
2023/04/12 13:22:45;;;;;;;8.30;8.10;;;10.60;99.90;;;;;;5084590;28;20256;-81
2023/04/12 13:25:14;;;;;;;8.33;8.13;;;10.70;99.90;;;;;;5083865;28;20257;-81
2023/04/12 13:27:44;;;;;;;8.50;8.30;;;10.70;99.90;;;;;;5073756;28;20238;-80